Terminal Aerodrome Forecast
Issued by NWS

Home | Current Version | Previous Version | Text Only | Print | Product List | Glossary On
Versions: 1 2 3 4 5 6 7 8 9 10 11 12 13 14 15 16 17 18 19 20 21 22 23 24
000
FTUS42 TJSJ 250529
TAFKPK
TAF
TKPK 250529Z 2506/2606 07004KT P6SM VCSH SCT018 SCT040
     FM251400 09010KT P6SM FEW022
     FM252300 07006KT P6SM FEW018 SCT035
      AMD NOT SKED TIL 251100=

USA.gov is the U.S. government's official web portal to all federal, state and local government web resources and services.